createdAt,value
2024-01-30T00:00:33.429Z,-0.09
2024-01-30T00:03:00.118Z,-0.05
2024-01-30T00:05:26.846Z,0.09
2024-01-30T00:07:53.557Z,0.13
2024-01-30T00:10:20.333Z,0.39
2024-01-30T00:12:47.034Z,0.29
2024-01-30T00:15:13.747Z,0.55
2024-01-30T00:17:40.438Z,0.34
2024-01-30T00:20:07.293Z,-0.06
2024-01-30T00:22:34.019Z,-0.24
2024-01-30T00:25:00.866Z,-0.33
2024-01-30T00:27:27.544Z,-0.05
2024-01-30T00:29:54.160Z,0.39
2024-01-30T00:32:20.904Z,-0.04
2024-01-30T00:34:47.715Z,0.05
2024-01-30T00:37:14.401Z,0.14
2024-01-30T00:39:41.145Z,0.20
2024-01-30T00:42:07.808Z,0.30
2024-01-30T00:44:34.449Z,0.33
2024-01-30T00:47:01.124Z,0.58
2024-01-30T00:49:27.856Z,0.47
2024-01-30T00:51:54.602Z,0.62
2024-01-30T00:54:21.333Z,0.61
2024-01-30T00:56:47.988Z,0.60
2024-01-30T00:59:14.603Z,0.50
2024-01-30T01:01:41.444Z,0.15
2024-01-30T01:04:08.198Z,-0.05
2024-01-30T01:06:34.884Z,-0.33
2024-01-30T01:09:04.398Z,-0.33
2024-01-30T01:11:31.955Z,-0.27
2024-01-30T01:13:58.701Z,0.07
2024-01-30T01:16:25.958Z,0.05
2024-01-30T01:18:52.749Z,0.09
2024-01-30T01:21:19.408Z,0.28
2024-01-30T01:23:46.093Z,0.02
2024-01-30T01:26:12.792Z,-0.05
2024-01-30T01:28:39.408Z,-0.20
2024-01-30T01:31:06.271Z,0.06
2024-01-30T01:33:33.276Z,0.12
2024-01-30T01:35:59.955Z,0.33
2024-01-30T01:38:26.653Z,-0.13
2024-01-30T01:40:53.270Z,0.14
2024-01-30T01:43:19.993Z,-0.38
2024-01-30T01:45:46.872Z,-0.33
2024-01-30T01:48:13.660Z,-0.43
2024-01-30T01:50:40.438Z,-0.30
2024-01-30T01:53:07.154Z,-0.06
2024-01-30T01:55:33.768Z,-0.19
2024-01-30T01:58:00.449Z,-0.22
2024-01-30T02:00:27.142Z,-0.62
2024-01-30T02:02:53.813Z,-0.63
2024-01-30T02:05:20.467Z,-0.40
2024-01-30T02:07:47.263Z,-0.35
2024-01-30T02:10:14.016Z,-0.59
2024-01-30T02:12:40.718Z,-0.15
2024-01-30T02:15:07.449Z,-0.25
2024-01-30T02:17:34.130Z,-0.08
2024-01-30T02:20:01.034Z,0.08
2024-01-30T02:22:27.912Z,0.07
2024-01-30T02:24:54.604Z,-0.12
2024-01-30T02:27:21.262Z,-0.07
2024-01-30T02:29:47.941Z,-0.35
2024-01-30T02:32:14.625Z,-0.05
2024-01-30T02:34:41.376Z,-0.12
2024-01-30T02:37:08.223Z,-0.14
2024-01-30T02:39:34.883Z,-0.35
2024-01-30T02:42:01.510Z,-0.15
2024-01-30T02:44:28.225Z,-0.21
2024-01-30T02:46:54.905Z,-0.15
2024-01-30T02:49:21.605Z,0.01
2024-01-30T02:51:48.336Z,-0.04
2024-01-30T02:54:14.986Z,-0.32
2024-01-30T02:56:41.620Z,-0.24
2024-01-30T02:59:08.323Z,-0.63
2024-01-30T03:01:34.993Z,-0.60
2024-01-30T03:06:46.094Z,-0.35
2024-01-30T03:09:12.776Z,-0.51
2024-01-30T03:11:39.445Z,-0.58
2024-01-30T03:14:06.172Z,-0.57
2024-01-30T03:16:32.813Z,-0.46
2024-01-30T03:18:59.533Z,-0.32
2024-01-30T03:21:26.293Z,-0.21
2024-01-30T03:23:52.941Z,-0.76
2024-01-30T03:26:19.566Z,-0.85
2024-01-30T03:28:46.340Z,-0.52
2024-01-30T03:31:13.073Z,-0.37
2024-01-30T03:33:39.764Z,-0.23
2024-01-30T03:36:06.534Z,-0.43
2024-01-30T03:38:33.171Z,-0.51
2024-01-30T03:40:59.813Z,-0.57
2024-01-30T03:43:26.544Z,-0.37
2024-01-30T03:45:53.258Z,-0.35
2024-01-30T03:48:19.900Z,-0.38
2024-01-30T03:50:46.620Z,-0.55
2024-01-30T03:53:13.250Z,-0.37
2024-01-30T03:55:39.873Z,-0.25
2024-01-30T03:58:06.659Z,-0.66
2024-01-30T04:00:33.335Z,-0.55
2024-01-30T04:02:59.990Z,-0.39
2024-01-30T04:05:26.723Z,-0.32
2024-01-30T04:07:53.344Z,-0.99
2024-01-30T04:10:19.996Z,-1.23
2024-01-30T04:12:46.790Z,-0.86
2024-01-30T04:15:13.432Z,-0.72
2024-01-30T04:17:40.067Z,-1.12
2024-01-30T04:20:06.892Z,-1.29
2024-01-30T04:22:33.627Z,-0.71
2024-01-30T04:25:00.371Z,-0.72
2024-01-30T04:27:27.092Z,-0.84
2024-01-30T04:29:53.739Z,-1.05
2024-01-30T04:32:20.386Z,-1.02
2024-01-30T04:34:47.344Z,-1.17
2024-01-30T04:37:14.100Z,-0.90
2024-01-30T04:39:40.790Z,-0.85
2024-01-30T04:42:09.666Z,-1.23
2024-01-30T04:44:36.575Z,-1.06
2024-01-30T04:47:03.216Z,-1.00
2024-01-30T04:49:29.989Z,-0.99
2024-01-30T04:51:56.694Z,-0.88
2024-01-30T04:54:23.364Z,-0.97
2024-01-30T04:56:50.133Z,-1.09
2024-01-30T04:59:16.757Z,-1.01
2024-01-30T05:01:43.480Z,-0.99
2024-01-30T05:04:12.839Z,-0.86
2024-01-30T05:06:41.360Z,-1.02
2024-01-30T05:09:08.074Z,-1.08
2024-01-30T05:11:34.767Z,-1.30
2024-01-30T05:14:01.379Z,-1.17
2024-01-30T05:16:28.062Z,-1.50
2024-01-30T05:18:54.864Z,-1.29
2024-01-30T05:21:21.529Z,-1.31
2024-01-30T05:23:48.166Z,-1.03
2024-01-30T05:26:14.865Z,-1.04
2024-01-30T05:28:41.489Z,-1.32
2024-01-30T05:31:08.140Z,-1.50
2024-01-30T05:33:34.974Z,-1.58
2024-01-30T05:36:01.675Z,-2.05
2024-01-30T05:38:28.307Z,-1.49
2024-01-30T05:40:55.010Z,-1.60
2024-01-30T05:43:21.750Z,-1.34
2024-01-30T05:45:48.413Z,-1.24
2024-01-30T05:48:15.124Z,-1.24
2024-01-30T05:50:41.871Z,-1.09
2024-01-30T05:53:08.563Z,-0.99
2024-01-30T05:55:35.250Z,-1.29
2024-01-30T05:58:01.933Z,-0.94
2024-01-30T06:00:28.670Z,-0.87
2024-01-30T06:02:55.432Z,-0.86
2024-01-30T06:05:22.173Z,-1.23
2024-01-30T06:07:49.064Z,-1.50
2024-01-30T06:10:15.833Z,-1.73
2024-01-30T06:12:42.837Z,-1.46
2024-01-30T06:15:09.508Z,-1.36
2024-01-30T06:17:36.250Z,-1.52
2024-01-30T06:20:02.950Z,-1.37
2024-01-30T06:22:29.740Z,-1.44
2024-01-30T06:24:56.514Z,-1.46
2024-01-30T06:27:23.163Z,-1.43
2024-01-30T06:29:49.805Z,-1.59
2024-01-30T06:32:16.509Z,-2.02
2024-01-30T06:34:43.194Z,-1.57
2024-01-30T06:37:09.904Z,-1.47
2024-01-30T06:39:36.582Z,-1.23
2024-01-30T06:42:03.205Z,-1.50
2024-01-30T06:44:33.118Z,-1.12
2024-01-30T06:47:00.171Z,-1.01
2024-01-30T06:49:27.086Z,-1.01
2024-01-30T06:51:53.877Z,-0.94
2024-01-30T06:54:20.584Z,-0.80
2024-01-30T06:56:47.232Z,-1.08
2024-01-30T06:59:13.909Z,-1.12
2024-01-30T07:01:40.704Z,-1.04
2024-01-30T07:04:07.470Z,-0.54
2024-01-30T07:06:34.169Z,-0.91
2024-01-30T07:09:00.938Z,-0.44
2024-01-30T07:11:27.576Z,-1.11
2024-01-30T07:13:54.214Z,-1.12
2024-01-30T07:16:21.200Z,-1.22
2024-01-30T07:18:48.086Z,-1.11
2024-01-30T07:21:14.809Z,-0.76
2024-01-30T07:23:41.508Z,-0.55
2024-01-30T07:26:08.162Z,-0.34
2024-01-30T07:28:34.825Z,-0.50
2024-01-30T07:31:01.576Z,-0.29
2024-01-30T07:33:28.292Z,-0.08
2024-01-30T07:35:54.974Z,-0.07
2024-01-30T07:38:21.669Z,0.15
2024-01-30T07:40:48.285Z,-0.36
2024-01-30T07:43:14.936Z,-0.46
2024-01-30T07:45:41.644Z,0.07
2024-01-30T07:48:08.326Z,0.52
2024-01-30T07:50:35.072Z,1.20
2024-01-30T07:53:01.777Z,1.30
2024-01-30T07:55:28.546Z,1.24
2024-01-30T07:57:55.405Z,1.22
2024-01-30T08:00:22.116Z,1.55
2024-01-30T08:02:48.756Z,1.79
2024-01-30T08:05:15.460Z,1.34
2024-01-30T08:07:42.269Z,1.94
2024-01-30T08:10:08.924Z,1.89
2024-01-30T08:12:35.590Z,2.18
2024-01-30T08:15:02.322Z,1.47
2024-01-30T08:17:28.937Z,2.23
2024-01-30T08:19:55.619Z,2.12
2024-01-30T08:22:22.654Z,2.44
2024-01-30T08:24:49.366Z,2.58
2024-01-30T08:27:16.038Z,2.19
2024-01-30T08:29:42.728Z,2.42
2024-01-30T08:32:09.365Z,2.36
2024-01-30T08:34:36.157Z,2.30
2024-01-30T08:37:02.958Z,2.64
2024-01-30T08:39:29.606Z,3.12
2024-01-30T08:41:56.270Z,2.90
2024-01-30T08:44:22.967Z,3.11
2024-01-30T08:46:49.611Z,2.99
2024-01-30T08:49:16.359Z,2.77
2024-01-30T08:51:43.225Z,3.41
2024-01-30T08:54:09.924Z,3.84
2024-01-30T08:56:36.539Z,4.03
2024-01-30T08:59:03.235Z,3.68
2024-01-30T09:01:30.066Z,4.03
2024-01-30T09:03:56.832Z,3.69
2024-01-30T09:06:23.616Z,4.53
2024-01-30T09:08:50.262Z,4.71
2024-01-30T09:11:16.910Z,4.48
2024-01-30T09:13:43.625Z,4.72
2024-01-30T09:16:10.324Z,4.70
2024-01-30T09:18:37.057Z,5.04
2024-01-30T09:21:03.960Z,4.89
2024-01-30T09:23:30.613Z,5.08
2024-01-30T09:25:57.279Z,5.55
2024-01-30T09:28:27.019Z,5.83
2024-01-30T09:30:54.075Z,5.33
2024-01-30T09:33:20.805Z,5.73
2024-01-30T09:35:47.510Z,6.11
2024-01-30T09:38:14.353Z,6.10
2024-01-30T09:40:41.017Z,5.75
2024-01-30T09:43:07.775Z,6.16
2024-01-30T09:45:34.426Z,6.31
2024-01-30T09:48:01.101Z,5.91
2024-01-30T09:50:27.873Z,6.36
2024-01-30T09:52:54.503Z,6.66
2024-01-30T09:55:21.160Z,6.71
2024-01-30T09:57:47.927Z,6.90
2024-01-30T10:00:14.559Z,6.76
2024-01-30T10:02:41.245Z,6.88
2024-01-30T10:05:08.029Z,6.42
2024-01-30T10:07:34.833Z,6.20
2024-01-30T10:10:01.696Z,6.95
2024-01-30T10:12:28.482Z,7.16
2024-01-30T10:14:55.119Z,7.09
2024-01-30T10:17:28.743Z,6.28
2024-01-30T10:20:00.084Z,6.90
2024-01-30T10:22:27.491Z,7.48
2024-01-30T10:24:54.262Z,7.30
2024-01-30T10:27:20.992Z,7.55
2024-01-30T10:29:47.671Z,7.68
2024-01-30T10:32:14.330Z,8.08
2024-01-30T10:34:41.278Z,8.35
2024-01-30T10:37:08.066Z,8.22
2024-01-30T10:39:34.747Z,8.54
2024-01-30T10:42:01.460Z,8.62
2024-01-30T10:44:28.154Z,8.95
2024-01-30T10:46:54.804Z,9.09
2024-01-30T10:49:21.602Z,8.93
2024-01-30T10:51:48.296Z,8.75
2024-01-30T10:54:14.953Z,9.10
2024-01-30T10:56:41.687Z,8.70
2024-01-30T10:59:11.310Z,9.01
2024-01-30T11:01:38.806Z,9.37
2024-01-30T11:04:05.619Z,9.51
2024-01-30T11:06:32.338Z,9.57
2024-01-30T11:08:59.075Z,9.28
2024-01-30T11:14:10.153Z,10.05
2024-01-30T11:16:36.856Z,10.28
2024-01-30T11:19:03.585Z,9.87
2024-01-30T11:21:30.379Z,9.50
2024-01-30T11:23:57.033Z,10.02
2024-01-30T11:26:23.673Z,9.77
2024-01-30T11:28:50.384Z,10.05
2024-01-30T11:31:17.030Z,10.32
2024-01-30T11:33:43.762Z,10.59
2024-01-30T11:36:10.521Z,10.16
2024-01-30T11:38:37.188Z,10.76
2024-01-30T11:41:03.809Z,10.23
2024-01-30T11:43:30.545Z,10.87
2024-01-30T11:45:57.254Z,11.13
2024-01-30T11:48:23.993Z,11.22
2024-01-30T11:50:51.212Z,11.27
2024-01-30T11:53:17.850Z,11.31
2024-01-30T11:55:44.495Z,11.14
2024-01-30T11:58:11.242Z,11.38
2024-01-30T12:00:37.909Z,10.77
2024-01-30T12:03:05.010Z,10.47
2024-01-30T12:05:32.066Z,10.08
2024-01-30T12:07:58.772Z,10.48
2024-01-30T12:10:25.458Z,10.77
2024-01-30T12:12:52.280Z,11.23
2024-01-30T12:15:18.961Z,11.65
2024-01-30T12:17:48.156Z,11.61
2024-01-30T12:20:15.062Z,10.27
2024-01-30T12:22:41.750Z,11.13
2024-01-30T12:25:08.418Z,11.10
2024-01-30T12:27:35.115Z,10.75
2024-01-30T12:30:01.767Z,10.86
2024-01-30T12:32:28.420Z,11.33
2024-01-30T12:35:01.037Z,10.97
2024-01-30T12:37:28.903Z,10.58
2024-01-30T12:39:56.058Z,10.54
2024-01-30T12:42:22.797Z,11.08
2024-01-30T12:44:49.430Z,10.74
2024-01-30T12:47:16.161Z,9.48
2024-01-30T12:49:42.821Z,10.36
2024-01-30T12:52:09.620Z,11.25
2024-01-30T12:54:36.371Z,10.55
2024-01-30T12:57:03.036Z,10.76
2024-01-30T12:59:29.700Z,11.49
2024-01-30T13:01:56.486Z,11.72
2024-01-30T13:04:23.193Z,11.17
2024-01-30T13:06:49.932Z,11.91
2024-01-30T13:09:16.690Z,11.72
2024-01-30T13:11:43.353Z,12.24
2024-01-30T13:14:10.091Z,12.31
2024-01-30T13:16:36.844Z,12.28
2024-01-30T13:19:03.605Z,11.86
2024-01-30T13:21:30.272Z,12.02
2024-01-30T13:23:56.976Z,11.87
2024-01-30T13:26:23.614Z,12.33
2024-01-30T13:28:50.252Z,12.22
2024-01-30T13:31:16.967Z,12.27
2024-01-30T13:33:43.632Z,12.54
2024-01-30T13:36:10.264Z,11.95
2024-01-30T13:38:37.010Z,11.54
2024-01-30T13:41:03.688Z,10.93
2024-01-30T13:43:30.517Z,10.88
2024-01-30T13:45:57.314Z,11.01
2024-01-30T13:48:23.987Z,11.72
2024-01-30T13:50:50.644Z,10.92
2024-01-30T13:53:17.949Z,11.55
2024-01-30T13:55:44.646Z,10.42
2024-01-30T13:58:11.335Z,9.79
2024-01-30T14:00:38.057Z,10.83
2024-01-30T14:03:04.784Z,11.53
2024-01-30T14:05:31.636Z,11.70
2024-01-30T14:07:58.487Z,11.84
2024-01-30T14:10:25.372Z,11.96
2024-01-30T14:12:52.020Z,12.19
2024-01-30T14:15:24.054Z,11.90
2024-01-30T14:17:55.342Z,12.19
2024-01-30T14:20:22.442Z,12.10
2024-01-30T14:22:49.139Z,11.62
2024-01-30T14:25:15.827Z,11.45
2024-01-30T14:27:42.554Z,11.43
2024-01-30T14:30:09.186Z,11.53
2024-01-30T14:32:35.929Z,11.33
2024-01-30T14:35:02.670Z,11.05
2024-01-30T14:37:29.429Z,10.77
2024-01-30T14:39:56.151Z,10.68
2024-01-30T14:42:22.893Z,10.28
2024-01-30T14:44:49.566Z,10.23
2024-01-30T14:47:16.247Z,9.98
2024-01-30T14:49:43.243Z,10.34
2024-01-30T14:52:10.038Z,10.43
2024-01-30T14:54:36.687Z,10.28
2024-01-30T14:57:03.403Z,10.24
2024-01-30T14:59:30.010Z,10.18
2024-01-30T15:01:56.686Z,9.74
2024-01-30T15:04:23.464Z,9.80
2024-01-30T15:06:50.195Z,9.83
2024-01-30T15:09:16.865Z,9.92
2024-01-30T15:11:43.563Z,9.55
2024-01-30T15:14:10.186Z,9.19
2024-01-30T15:16:36.920Z,9.20
2024-01-30T15:19:03.827Z,9.30
2024-01-30T15:21:30.639Z,9.38
2024-01-30T15:23:57.302Z,9.12
2024-01-30T15:26:24.031Z,9.00
2024-01-30T15:28:50.677Z,9.12
2024-01-30T15:31:17.398Z,9.07
2024-01-30T15:33:44.300Z,9.16
2024-01-30T15:36:10.928Z,9.03
2024-01-30T15:38:37.536Z,9.04
2024-01-30T15:41:04.292Z,8.72
2024-01-30T15:43:31.030Z,8.74
2024-01-30T15:45:57.814Z,8.64
2024-01-30T15:48:24.579Z,8.51
2024-01-30T15:50:51.241Z,8.08
2024-01-30T15:53:17.879Z,7.87
2024-01-30T15:55:44.590Z,7.78
2024-01-30T15:58:11.289Z,7.70
2024-01-30T16:00:37.992Z,7.56
2024-01-30T16:03:04.787Z,7.22
2024-01-30T16:05:31.436Z,7.05
2024-01-30T16:07:58.080Z,7.00
2024-01-30T16:10:24.820Z,6.95
2024-01-30T16:12:51.481Z,7.07
2024-01-30T16:15:18.140Z,6.92
2024-01-30T16:17:44.853Z,6.77
2024-01-30T16:20:11.561Z,6.55
2024-01-30T16:22:38.285Z,6.49
2024-01-30T16:25:05.038Z,6.73
2024-01-30T16:27:31.689Z,6.31
2024-01-30T16:29:58.330Z,6.30
2024-01-30T16:32:25.075Z,6.01
2024-01-30T16:34:51.735Z,6.29
2024-01-30T16:37:18.457Z,6.17
2024-01-30T16:39:45.235Z,5.88
2024-01-30T16:42:11.863Z,5.76
2024-01-30T16:44:38.520Z,5.99
2024-01-30T16:47:05.201Z,5.98
2024-01-30T16:49:31.894Z,5.57
2024-01-30T16:52:01.338Z,5.88
2024-01-30T16:54:29.154Z,5.68
2024-01-30T16:56:55.775Z,5.63
2024-01-30T16:59:22.415Z,5.62
2024-01-30T17:01:49.384Z,5.60
2024-01-30T17:04:16.294Z,5.16
2024-01-30T17:06:42.973Z,5.21
2024-01-30T17:09:09.783Z,4.98
2024-01-30T17:11:36.458Z,4.89
2024-01-30T17:14:03.087Z,4.78
2024-01-30T17:16:29.897Z,4.57
2024-01-30T17:18:56.681Z,4.72
2024-01-30T17:21:23.349Z,4.68
2024-01-30T17:23:50.037Z,4.62
2024-01-30T17:26:16.824Z,4.24
2024-01-30T17:28:43.765Z,4.44
2024-01-30T17:31:10.578Z,4.34
2024-01-30T17:33:37.343Z,4.66
2024-01-30T17:36:04.057Z,4.46
2024-01-30T17:38:30.768Z,3.75
2024-01-30T17:41:05.308Z,4.17
2024-01-30T17:43:36.388Z,4.19
2024-01-30T17:46:03.065Z,3.69
2024-01-30T17:48:29.787Z,3.91
2024-01-30T17:50:56.572Z,3.81
2024-01-30T17:53:23.215Z,3.97
2024-01-30T17:55:49.889Z,3.52
2024-01-30T17:58:16.682Z,3.83
2024-01-30T18:00:43.363Z,3.44
2024-01-30T18:03:10.054Z,3.23
2024-01-30T18:05:36.815Z,3.71
2024-01-30T18:08:03.446Z,4.03
2024-01-30T18:10:30.160Z,3.75
2024-01-30T18:12:56.907Z,3.79
2024-01-30T18:15:23.538Z,3.78
2024-01-30T18:17:50.318Z,3.81
2024-01-30T18:20:17.125Z,3.74
2024-01-30T18:22:43.856Z,3.86
2024-01-30T18:25:10.566Z,3.83
2024-01-30T18:27:37.252Z,3.66
2024-01-30T18:30:03.918Z,2.97
2024-01-30T18:32:30.556Z,3.06
2024-01-30T18:34:57.275Z,2.79
2024-01-30T18:37:24.035Z,2.89
2024-01-30T18:39:50.809Z,2.89
2024-01-30T18:42:17.487Z,2.72
2024-01-30T18:44:44.115Z,3.00
2024-01-30T18:47:10.778Z,2.85
2024-01-30T18:49:37.596Z,2.92
2024-01-30T18:52:04.313Z,2.54
2024-01-30T18:54:30.942Z,2.56
2024-01-30T18:56:57.653Z,2.16
2024-01-30T18:59:24.266Z,2.41
2024-01-30T19:01:51.051Z,2.56
2024-01-30T19:04:18.070Z,2.63
2024-01-30T19:06:44.755Z,2.94
2024-01-30T19:09:11.396Z,2.54
2024-01-30T19:11:38.101Z,2.57
2024-01-30T19:14:04.761Z,2.93
2024-01-30T19:16:31.461Z,2.72
2024-01-30T19:18:58.329Z,2.71
2024-01-30T19:21:25.004Z,2.83
2024-01-30T19:23:51.661Z,2.29
2024-01-30T19:26:20.690Z,2.51
2024-01-30T19:28:47.346Z,2.48
2024-01-30T19:31:15.628Z,2.12
2024-01-30T19:33:43.017Z,1.72
2024-01-30T19:36:09.662Z,1.79
2024-01-30T19:38:36.286Z,2.19
2024-01-30T19:41:02.997Z,2.77
2024-01-30T19:43:29.706Z,2.74
2024-01-30T19:45:56.438Z,2.42
2024-01-30T19:48:23.227Z,2.28
2024-01-30T19:50:49.877Z,2.12
2024-01-30T19:53:16.637Z,2.03
2024-01-30T19:55:43.425Z,2.36
2024-01-30T19:58:10.120Z,1.63
2024-01-30T20:00:36.817Z,2.14
2024-01-30T20:03:03.547Z,2.01
2024-01-30T20:05:30.480Z,1.82
2024-01-30T20:07:57.330Z,2.01
2024-01-30T20:10:24.082Z,1.79
2024-01-30T20:12:50.752Z,1.90
2024-01-30T20:15:19.566Z,1.94
2024-01-30T20:17:46.440Z,1.52
2024-01-30T20:20:13.265Z,1.78
2024-01-30T20:22:40.041Z,1.92
2024-01-30T20:25:13.600Z,2.06
2024-01-30T20:27:45.090Z,2.24
2024-01-30T20:30:11.812Z,2.48
2024-01-30T20:32:38.422Z,1.91
2024-01-30T20:35:05.092Z,1.82
2024-01-30T20:37:31.931Z,1.51
2024-01-30T20:39:58.648Z,1.88
2024-01-30T20:42:25.267Z,1.73
2024-01-30T20:44:51.954Z,1.46
2024-01-30T20:47:18.635Z,2.03
2024-01-30T20:49:45.310Z,2.25
2024-01-30T20:52:12.102Z,2.25
2024-01-30T20:54:38.791Z,1.78
2024-01-30T20:57:05.413Z,1.71
2024-01-30T20:59:32.186Z,1.95
2024-01-30T21:01:58.883Z,1.78
2024-01-30T21:04:25.668Z,1.41
2024-01-30T21:06:52.423Z,1.56
2024-01-30T21:09:19.069Z,1.39
2024-01-30T21:11:45.703Z,1.39
2024-01-30T21:14:14.670Z,1.80
2024-01-30T21:16:41.668Z,2.11
2024-01-30T21:19:08.963Z,1.84
2024-01-30T21:21:35.694Z,1.77
2024-01-30T21:24:02.322Z,2.11
2024-01-30T21:26:28.948Z,1.76
2024-01-30T21:28:55.645Z,1.72
2024-01-30T21:31:22.313Z,1.99
2024-01-30T21:33:49.030Z,1.63
2024-01-30T21:36:15.797Z,1.27
2024-01-30T21:38:42.422Z,1.51
2024-01-30T21:41:09.062Z,0.94
2024-01-30T21:43:35.818Z,1.34
2024-01-30T21:46:02.541Z,1.66
2024-01-30T21:48:29.237Z,1.06
2024-01-30T21:50:55.925Z,1.29
2024-01-30T21:53:22.532Z,1.66
2024-01-30T21:55:49.187Z,1.24
2024-01-30T21:58:15.922Z,0.85
2024-01-30T22:00:42.638Z,0.97
2024-01-30T22:03:09.383Z,1.00
2024-01-30T22:05:36.164Z,0.55
2024-01-30T22:08:02.886Z,1.11
2024-01-30T22:10:29.725Z,1.02
2024-01-30T22:12:56.482Z,1.06
2024-01-30T22:15:23.127Z,1.47
2024-01-30T22:17:49.861Z,1.17
2024-01-30T22:20:16.744Z,1.23
2024-01-30T22:22:43.470Z,1.68
2024-01-30T22:25:10.208Z,1.62
2024-01-30T22:27:36.929Z,1.59
2024-01-30T22:30:03.540Z,1.51
2024-01-30T22:32:30.236Z,1.25
2024-01-30T22:34:57.052Z,1.08
2024-01-30T22:37:23.808Z,1.55
2024-01-30T22:39:50.436Z,1.05
2024-01-30T22:42:17.114Z,1.38
2024-01-30T22:44:43.724Z,0.62
2024-01-30T22:47:10.356Z,0.61
2024-01-30T22:49:37.182Z,1.20
2024-01-30T22:52:03.925Z,1.44
2024-01-30T22:54:30.577Z,1.41
2024-01-30T22:56:57.263Z,1.52
2024-01-30T22:59:23.897Z,1.34
2024-01-30T23:01:50.581Z,1.22
2024-01-30T23:04:17.392Z,1.23
2024-01-30T23:06:44.168Z,0.98
2024-01-30T23:09:10.965Z,1.05
2024-01-30T23:11:37.673Z,1.21
2024-01-30T23:14:04.298Z,1.07
2024-01-30T23:16:31.051Z,1.15
2024-01-30T23:18:57.875Z,0.86
2024-01-30T23:21:24.546Z,0.37
2024-01-30T23:23:51.171Z,0.45
2024-01-30T23:26:17.891Z,0.97
2024-01-30T23:28:44.640Z,1.16
2024-01-30T23:31:11.343Z,0.97
2024-01-30T23:33:38.079Z,0.89
2024-01-30T23:36:04.712Z,0.85
2024-01-30T23:38:31.346Z,0.94
2024-01-30T23:40:58.063Z,0.99
2024-01-30T23:43:26.775Z,1.02
2024-01-30T23:45:55.643Z,0.82
2024-01-30T23:48:22.631Z,1.21
2024-01-30T23:50:49.418Z,0.74
2024-01-30T23:53:16.033Z,0.87
2024-01-30T23:55:42.831Z,0.61
2024-01-30T23:58:09.598Z,0.80
